10°C Temp
5°C Dewpoint
% Humidity
Temperature
11 KM/H
7 MPH
6 KTS
50°
North East

Wind Speed
Clear
Conditions
Pressure 1027.92 (hPa) - 30.35 (in)
Visibility 6.2 (mi) - 10.0 (km)

Current Conditions
YPPH
Location 20(km)
Metar :YPPH 152030Z 05006KT CAVOK 10/05 Q1028 NOSIG
Tue 16th July 04:30 am

Airport
  Metar Aviation API Data Provided by https://www.checkwx.com/ PHP scripts by weather34.com ©2019